createdAt,value
2023-04-21T00:01:44.391Z,19.37
2023-04-21T00:04:15.290Z,16.93
2023-04-21T00:06:44.433Z,19.80
2023-04-21T00:09:13.896Z,19.33
2023-04-21T00:11:41.920Z,17.97
2023-04-21T00:14:09.990Z,20.00
2023-04-21T00:16:38.227Z,19.13
2023-04-21T00:19:07.229Z,19.03
2023-04-21T00:21:35.637Z,17.60
2023-04-21T00:24:03.754Z,19.70
2023-04-21T00:26:33.232Z,18.20
2023-04-21T00:29:01.257Z,19.33
2023-04-21T00:31:29.397Z,20.00
2023-04-21T00:33:57.449Z,19.50
2023-04-21T00:36:28.132Z,19.90
2023-04-21T00:38:56.230Z,19.73
2023-04-21T00:41:24.755Z,19.40
2023-04-21T00:44:03.625Z,22.23
2023-04-21T00:46:31.964Z,20.27
2023-04-21T00:49:00.416Z,21.10
2023-04-21T00:51:30.205Z,22.67
2023-04-21T00:53:58.366Z,21.20
2023-04-21T00:56:27.265Z,21.37
2023-04-21T00:58:56.161Z,22.10
2023-04-21T01:01:25.697Z,21.13
2023-04-21T01:03:54.239Z,19.90
2023-04-21T01:06:22.398Z,22.70
2023-04-21T01:08:52.584Z,19.80
2023-04-21T01:11:21.271Z,19.23
2023-04-21T01:13:49.347Z,21.03
2023-04-21T01:16:19.074Z,19.33
2023-04-21T01:18:48.553Z,20.07
2023-04-21T01:21:17.296Z,20.90
2023-04-21T01:23:47.208Z,19.50
2023-04-21T01:26:18.396Z,20.97
2023-04-21T01:28:47.697Z,19.70
2023-04-21T01:31:16.129Z,21.70
2023-04-21T01:33:44.332Z,21.00
2023-04-21T01:36:12.543Z,20.13
2023-04-21T01:38:41.106Z,19.30
2023-04-21T01:41:11.382Z,20.77
2023-04-21T01:43:39.821Z,21.90
2023-04-21T01:46:09.108Z,20.10
2023-04-21T01:48:38.912Z,20.30
2023-04-21T01:51:07.089Z,21.23
2023-04-21T01:53:35.151Z,26.20
2023-04-21T01:56:03.203Z,22.10
2023-04-21T01:58:32.684Z,22.10
2023-04-21T02:01:00.793Z,23.40
2023-04-21T02:03:29.076Z,24.30
2023-04-21T02:05:57.257Z,25.40
2023-04-21T02:08:25.337Z,24.53
2023-04-21T02:10:53.405Z,25.90
2023-04-21T02:13:21.510Z,24.77
2023-04-21T02:15:57.209Z,25.37
2023-04-21T02:18:34.555Z,24.37
2023-04-21T02:21:03.006Z,25.20
2023-04-21T02:23:31.149Z,25.10
2023-04-21T02:25:59.217Z,23.40
2023-04-21T02:28:27.251Z,20.23
2023-04-21T02:30:57.006Z,20.37
2023-04-21T02:33:25.143Z,20.33
2023-04-21T02:35:53.274Z,22.40
2023-04-21T02:38:21.317Z,20.90
2023-04-21T02:40:50.526Z,21.80
2023-04-21T02:43:18.802Z,22.80
2023-04-21T02:45:47.146Z,24.43
2023-04-21T02:48:17.315Z,20.93
2023-04-21T02:50:45.420Z,23.30
2023-04-21T02:53:14.626Z,22.37
2023-04-21T02:55:42.661Z,23.20
2023-04-21T02:58:11.042Z,24.10
2023-04-21T03:00:39.139Z,24.60
2023-04-21T03:03:07.934Z,23.10
2023-04-21T03:05:37.507Z,22.73
2023-04-21T03:08:06.032Z,22.47
2023-04-21T03:10:34.102Z,23.90
2023-04-21T03:13:02.167Z,21.77
2023-04-21T03:15:30.261Z,22.00
2023-04-21T03:17:58.443Z,25.17
2023-04-21T03:20:26.557Z,23.00
2023-04-21T03:22:56.208Z,20.03
2023-04-21T03:25:24.604Z,19.60
2023-04-21T03:27:52.638Z,20.00
2023-04-21T03:30:20.881Z,20.00
2023-04-21T03:32:49.083Z,20.47
2023-04-21T03:35:17.457Z,20.87
2023-04-21T03:37:45.764Z,19.87
2023-04-21T03:40:15.661Z,21.03
2023-04-21T03:42:43.881Z,20.00
2023-04-21T03:45:12.213Z,21.73
2023-04-21T03:47:40.263Z,19.70
2023-04-21T03:50:09.252Z,19.80
2023-04-21T03:52:37.336Z,20.80
2023-04-21T03:55:08.920Z,19.67
2023-04-21T03:57:39.584Z,19.90
2023-04-21T04:00:10.469Z,20.60
2023-04-21T04:02:38.666Z,22.53
2023-04-21T04:05:07.811Z,19.80
2023-04-21T04:07:36.260Z,19.77
2023-04-21T04:10:04.417Z,21.03
2023-04-21T04:12:32.506Z,21.53
2023-04-21T04:15:02.739Z,21.77
2023-04-21T04:17:30.832Z,20.40
2023-04-21T04:19:58.936Z,21.00
2023-04-21T04:22:27.044Z,19.13
2023-04-21T04:24:55.646Z,18.97
2023-04-21T04:27:23.766Z,18.40
2023-04-21T04:29:51.975Z,20.63
2023-04-21T04:32:21.830Z,20.47
2023-04-21T04:34:52.364Z,19.47
2023-04-21T04:37:21.825Z,19.27
2023-04-21T04:39:50.466Z,18.33
2023-04-21T04:42:20.303Z,18.03
2023-04-21T04:44:48.645Z,19.27
2023-04-21T04:47:16.746Z,19.40
2023-04-21T04:49:46.980Z,17.80
2023-04-21T04:52:15.044Z,17.73
2023-04-21T04:54:43.127Z,18.73
2023-04-21T04:57:11.188Z,18.57
2023-04-21T04:59:39.217Z,18.83
2023-04-21T05:02:08.989Z,17.17
2023-04-21T05:04:37.188Z,17.53
2023-04-21T05:07:07.832Z,16.70
2023-04-21T05:09:36.047Z,17.90
2023-04-21T05:12:04.106Z,17.67
2023-04-21T05:14:32.146Z,18.63
2023-04-21T05:17:00.434Z,16.30
2023-04-21T05:19:28.530Z,17.23
2023-04-21T05:22:01.781Z,17.83
2023-04-21T05:24:31.186Z,17.27
2023-04-21T05:26:59.210Z,17.97
2023-04-21T05:29:27.277Z,17.90
2023-04-21T05:31:55.343Z,18.20
2023-04-21T05:34:23.456Z,18.53
2023-04-21T05:36:52.236Z,18.70
2023-04-21T05:39:20.414Z,18.10
2023-04-21T05:41:49.922Z,17.50
2023-04-21T05:44:18.838Z,19.10
2023-04-21T05:46:47.160Z,18.33
2023-04-21T05:49:15.271Z,17.63
2023-04-21T05:51:43.314Z,18.40
2023-04-21T05:54:11.367Z,18.37
2023-04-21T05:56:39.431Z,21.83
2023-04-21T05:59:08.859Z,18.10
2023-04-21T06:01:36.936Z,20.10
2023-04-21T06:04:05.455Z,20.47
2023-04-21T06:06:33.587Z,18.77
2023-04-21T06:09:01.832Z,19.77
2023-04-21T06:11:29.907Z,20.57
2023-04-21T06:13:59.521Z,18.63
2023-04-21T06:16:32.171Z,18.20
2023-04-21T06:19:00.296Z,19.40
2023-04-21T06:21:28.664Z,19.10
2023-04-21T06:23:56.834Z,16.90
2023-04-21T06:26:24.916Z,17.83
2023-04-21T06:28:52.980Z,19.53
2023-04-21T06:31:21.314Z,18.57
2023-04-21T06:33:50.770Z,18.73
2023-04-21T06:36:18.841Z,20.13
2023-04-21T06:38:46.877Z,16.80
2023-04-21T06:41:14.959Z,19.67
2023-04-21T06:43:43.004Z,18.83
2023-04-21T06:46:11.140Z,19.53
2023-04-21T06:48:39.226Z,19.63
2023-04-21T06:51:08.722Z,21.77
2023-04-21T06:53:37.461Z,22.53
2023-04-21T06:56:05.677Z,23.50
2023-04-21T06:58:33.756Z,21.77
2023-04-21T07:01:02.008Z,23.70
2023-04-21T07:03:30.212Z,23.13
2023-04-21T07:05:58.562Z,22.00
2023-04-21T07:08:28.005Z,23.47
2023-04-21T07:10:56.170Z,26.47
2023-04-21T07:13:24.283Z,25.00
2023-04-21T07:15:52.621Z,25.10
2023-04-21T07:18:20.831Z,24.93
2023-04-21T07:20:48.914Z,23.80
2023-04-21T07:23:17.027Z,24.50
2023-04-21T07:25:46.470Z,25.73
2023-04-21T07:28:16.201Z,25.63
2023-04-21T07:30:44.545Z,25.40
2023-04-21T07:33:12.762Z,26.77
2023-04-21T07:35:40.864Z,25.50
2023-04-21T07:38:08.957Z,26.80
2023-04-21T07:40:37.039Z,25.50
2023-04-21T07:43:06.489Z,25.00
2023-04-21T07:45:34.548Z,25.10
2023-04-21T07:48:02.650Z,25.90
2023-04-21T07:50:30.769Z,23.47
2023-04-21T07:52:58.853Z,23.40
2023-04-21T07:55:26.929Z,23.40
2023-04-21T07:57:55.166Z,25.03
2023-04-21T08:00:24.840Z,25.57
2023-04-21T08:02:53.042Z,26.73
2023-04-21T08:05:21.392Z,22.43
2023-04-21T08:07:49.533Z,23.63
2023-04-21T08:10:17.665Z,23.30
2023-04-21T08:12:45.864Z,24.63
2023-04-21T08:15:13.974Z,25.70
2023-04-21T08:17:43.501Z,26.13
2023-04-21T08:20:12.713Z,26.67
2023-04-21T08:22:41.018Z,24.13
2023-04-21T08:25:09.951Z,22.93
2023-04-21T08:27:40.046Z,23.73
2023-04-21T08:30:09.452Z,25.03
2023-04-21T08:32:37.641Z,25.03
2023-04-21T08:35:08.137Z,25.40
2023-04-21T08:37:38.354Z,25.40
2023-04-21T08:40:07.440Z,26.13
2023-04-21T08:42:36.951Z,25.17
2023-04-21T08:45:05.706Z,26.00
2023-04-21T08:47:34.655Z,26.00
2023-04-21T08:50:02.911Z,25.23
2023-04-21T08:52:32.393Z,27.20
2023-04-21T08:55:01.493Z,28.10
2023-04-21T08:57:29.551Z,25.63
2023-04-21T08:59:57.613Z,26.43
2023-04-21T09:02:26.268Z,25.33
2023-04-21T09:04:55.969Z,25.17
2023-04-21T09:07:36.969Z,27.07
2023-04-21T09:10:06.830Z,26.47
2023-04-21T09:12:35.035Z,25.37
2023-04-21T09:15:06.470Z,24.20
2023-04-21T09:17:36.803Z,25.70
2023-04-21T09:20:15.888Z,24.90
2023-04-21T09:22:45.842Z,25.90
2023-04-21T09:25:17.725Z,25.10
2023-04-21T09:27:46.615Z,24.90
2023-04-21T09:30:19.351Z,25.93
2023-04-21T09:32:47.673Z,25.53
2023-04-21T09:35:16.066Z,27.83
2023-04-21T09:37:46.090Z,25.07
2023-04-21T09:40:18.900Z,23.33
2023-04-21T09:42:47.786Z,23.30
2023-04-21T09:45:36.659Z,23.13
2023-04-21T09:48:07.526Z,23.27
2023-04-21T09:51:15.317Z,24.00
2023-04-21T09:53:27.626Z,20.47
2023-04-21T09:55:58.021Z,15.83
2023-04-21T09:58:35.130Z,16.43
2023-04-21T10:01:04.667Z,19.07
2023-04-21T10:03:33.464Z,19.20
2023-04-21T10:06:02.144Z,18.97
2023-04-21T10:08:31.970Z,19.47
2023-04-21T10:11:00.829Z,21.17
2023-04-21T10:13:29.386Z,21.40
2023-04-21T10:16:04.702Z,22.03
2023-04-21T10:18:32.792Z,19.67
2023-04-21T10:21:06.215Z,19.60
2023-04-21T10:23:39.047Z,18.17
2023-04-21T10:26:11.272Z,18.57
2023-04-21T10:28:47.288Z,19.40
2023-04-21T10:31:23.996Z,17.17
2023-04-21T10:34:17.953Z,17.57
2023-04-21T10:37:16.219Z,18.77
2023-04-21T10:39:48.509Z,18.90
2023-04-21T10:42:23.064Z,18.90
2023-04-21T10:45:08.494Z,19.17
2023-04-21T10:47:42.889Z,21.27
2023-04-21T10:50:16.656Z,19.73
2023-04-21T10:52:53.000Z,20.97
2023-04-21T10:55:22.854Z,19.57
2023-04-21T10:57:51.010Z,19.43
2023-04-21T11:00:21.760Z,19.67
2023-04-21T11:03:00.464Z,19.93
2023-04-21T11:05:38.336Z,20.30
2023-04-21T11:08:14.512Z,21.33
2023-04-21T11:11:01.638Z,18.90
2023-04-21T11:13:33.666Z,18.40
2023-04-21T11:16:07.482Z,18.97
2023-04-21T11:18:38.931Z,17.73
2023-04-21T11:21:17.949Z,17.30
2023-04-21T11:23:56.070Z,19.80
2023-04-21T11:26:38.369Z,20.30
2023-04-21T11:29:08.431Z,19.20
2023-04-21T11:31:37.915Z,18.70
2023-04-21T11:34:07.472Z,17.80
2023-04-21T11:36:35.615Z,17.53
2023-04-21T11:39:08.259Z,17.30
2023-04-21T11:41:39.848Z,18.33
2023-04-21T11:44:08.138Z,16.40
2023-04-21T11:46:37.338Z,18.43
2023-04-21T11:49:06.875Z,17.23
2023-04-21T11:51:35.937Z,18.00
2023-04-21T11:54:05.502Z,18.77
2023-04-21T11:56:38.529Z,18.70
2023-04-21T11:59:09.854Z,17.40
2023-04-21T12:01:45.175Z,17.97
2023-04-21T12:04:16.884Z,16.77
2023-04-21T12:06:45.755Z,16.00
2023-04-21T12:09:19.466Z,19.13
2023-04-21T12:11:51.280Z,18.03
2023-04-21T12:14:20.702Z,18.17
2023-04-21T12:16:51.504Z,18.23
2023-04-21T12:19:26.729Z,18.90
2023-04-21T12:21:56.445Z,17.30
2023-04-21T12:24:24.668Z,18.77
2023-04-21T12:26:54.084Z,17.40
2023-04-21T12:29:22.173Z,18.93
2023-04-21T12:31:50.238Z,19.57
2023-04-21T12:34:18.321Z,16.70
2023-04-21T12:36:46.385Z,16.83
2023-04-21T12:39:17.322Z,17.30
2023-04-21T12:41:45.515Z,16.00
2023-04-21T12:44:15.056Z,15.33
2023-04-21T12:46:43.312Z,15.07
2023-04-21T12:49:11.718Z,16.67
2023-04-21T12:51:39.779Z,13.67
2023-04-21T12:54:07.916Z,11.37
2023-04-21T12:56:36.252Z,12.20
2023-04-21T12:59:04.410Z,12.00
2023-04-21T13:01:34.096Z,12.93
2023-04-21T13:04:02.528Z,15.80
2023-04-21T13:06:31.253Z,15.87
2023-04-21T13:08:59.385Z,17.33
2023-04-21T13:11:27.575Z,15.80
2023-04-21T13:13:55.663Z,14.40
2023-04-21T13:16:23.745Z,14.20
2023-04-21T13:18:53.164Z,15.40
2023-04-21T13:21:21.263Z,15.37
2023-04-21T13:23:49.447Z,16.23
2023-04-21T13:26:18.617Z,15.13
2023-04-21T13:28:46.833Z,14.50
2023-04-21T13:31:15.524Z,14.73
2023-04-21T13:33:43.960Z,13.70
2023-04-21T13:36:13.414Z,13.60
2023-04-21T13:38:41.779Z,13.57
2023-04-21T13:41:09.959Z,13.40
2023-04-21T13:43:38.147Z,11.13
2023-04-21T13:46:06.637Z,9.10
2023-04-21T13:48:34.772Z,7.07
2023-04-21T13:51:02.856Z,7.43
2023-04-21T13:53:32.306Z,8.33
2023-04-21T13:56:00.423Z,9.90
2023-04-21T13:58:30.628Z,10.03
2023-04-21T14:00:58.727Z,8.60
2023-04-21T14:03:26.935Z,7.43
2023-04-21T14:05:55.397Z,7.90
2023-04-21T14:08:23.749Z,8.53
2023-04-21T14:10:53.259Z,6.60
2023-04-21T14:13:33.940Z,6.77
2023-04-21T14:16:06.357Z,4.40
2023-04-21T14:18:34.802Z,4.90
2023-04-21T14:21:02.863Z,4.87
2023-04-21T14:23:30.938Z,5.53
2023-04-21T14:26:00.839Z,4.80
2023-04-21T14:28:28.915Z,5.00
2023-04-21T14:30:56.991Z,5.43
2023-04-21T14:33:25.062Z,5.23
2023-04-21T14:35:53.131Z,5.13
2023-04-21T14:38:21.260Z,4.83
2023-04-21T14:40:51.332Z,5.13
2023-04-21T14:43:20.787Z,4.83
2023-04-21T14:45:49.183Z,6.00
2023-04-21T14:48:17.656Z,6.40
2023-04-21T14:50:45.925Z,8.47
2023-04-21T14:53:14.005Z,9.60
2023-04-21T14:55:42.047Z,10.73
2023-04-21T14:58:10.133Z,11.00
2023-04-21T15:00:39.750Z,8.90
2023-04-21T15:03:07.962Z,11.03
2023-04-21T15:05:36.740Z,9.60
2023-04-21T15:08:05.260Z,8.73
2023-04-21T15:10:33.606Z,8.80
2023-04-21T15:13:01.724Z,7.37
2023-04-21T15:15:29.781Z,7.00
2023-04-21T15:17:59.239Z,8.40
2023-04-21T15:20:36.921Z,9.27
2023-04-21T15:23:11.912Z,7.20
2023-04-21T15:25:40.280Z,7.70
2023-04-21T15:28:08.824Z,10.87
2023-04-21T15:30:37.340Z,11.00
2023-04-21T15:33:07.025Z,10.87
2023-04-21T15:35:35.107Z,10.70
2023-04-21T15:38:03.180Z,10.20
2023-04-21T15:40:31.356Z,11.20
2023-04-21T15:42:59.473Z,10.77
2023-04-21T15:45:27.689Z,8.93
2023-04-21T15:47:55.892Z,8.23
2023-04-21T15:50:25.680Z,8.50
2023-04-21T15:52:53.927Z,9.20
2023-04-21T15:55:23.044Z,10.57
2023-04-21T15:57:51.131Z,10.23
2023-04-21T16:00:19.651Z,9.50
2023-04-21T16:02:49.022Z,10.60
2023-04-21T16:05:18.607Z,10.77
2023-04-21T16:07:48.468Z,10.83
2023-04-21T16:10:16.582Z,11.77
2023-04-21T16:12:45.884Z,12.77
2023-04-21T16:15:23.630Z,9.93
2023-04-21T16:17:53.086Z,9.23
2023-04-21T16:20:21.398Z,9.40
2023-04-21T16:22:52.020Z,9.27
2023-04-21T16:25:20.500Z,8.07
2023-04-21T16:27:48.719Z,7.93
2023-04-21T16:30:17.070Z,8.03
2023-04-21T16:32:45.279Z,7.70
2023-04-21T16:35:13.465Z,7.63
2023-04-21T16:37:42.790Z,7.10
2023-04-21T16:40:13.074Z,6.73
2023-04-21T16:42:41.246Z,9.20
2023-04-21T16:45:09.968Z,9.90
2023-04-21T16:47:41.705Z,8.20
2023-04-21T16:50:11.195Z,7.73
2023-04-21T16:52:39.495Z,5.73
2023-04-21T16:55:08.732Z,7.60
2023-04-21T16:57:38.146Z,8.10
2023-04-21T17:00:08.629Z,6.93
2023-04-21T17:02:36.795Z,8.20
2023-04-21T17:05:05.332Z,15.00
2023-04-21T17:07:33.425Z,12.87
2023-04-21T17:10:01.497Z,7.83
2023-04-21T17:12:29.661Z,7.93
2023-04-21T17:14:59.088Z,27.97
2023-04-21T17:17:27.248Z,16.47
2023-04-21T17:19:55.353Z,23.77
2023-04-21T17:22:23.395Z,23.00
2023-04-21T17:24:53.288Z,13.70
2023-04-21T17:27:22.152Z,9.10
2023-04-21T17:29:51.139Z,9.60
2023-04-21T17:32:20.763Z,7.60
2023-04-21T17:34:48.879Z,10.13
2023-04-21T17:37:17.044Z,7.87
2023-04-21T17:39:45.085Z,7.60
2023-04-21T17:42:13.136Z,7.50
2023-04-21T17:44:41.361Z,8.50
2023-04-21T17:47:09.974Z,8.93
2023-04-21T17:49:39.757Z,8.50
2023-04-21T17:52:07.848Z,8.47
2023-04-21T17:54:37.336Z,8.47
2023-04-21T17:57:06.754Z,9.13
2023-04-21T17:59:34.876Z,7.83
2023-04-21T18:02:03.066Z,8.97
2023-04-21T18:04:33.927Z,11.40
2023-04-21T18:07:04.074Z,70.97
2023-04-21T18:09:32.378Z,28.10
2023-04-21T18:12:00.481Z,17.03
2023-04-21T18:14:28.915Z,15.73
2023-04-21T18:16:56.987Z,15.90
2023-04-21T18:19:25.047Z,17.60
2023-04-21T18:21:53.220Z,15.57
2023-04-21T18:24:22.685Z,10.00
2023-04-21T18:26:51.239Z,11.30
2023-04-21T18:29:19.575Z,13.17
2023-04-21T18:31:47.742Z,11.70
2023-04-21T18:34:16.567Z,11.87
2023-04-21T18:36:44.763Z,12.83
2023-04-21T18:39:12.897Z,11.60
2023-04-21T18:41:43.108Z,12.00
2023-04-21T18:44:11.158Z,12.20
2023-04-21T18:46:39.236Z,11.80
2023-04-21T18:49:07.311Z,12.40
2023-04-21T18:51:36.010Z,12.37
2023-04-21T18:54:04.878Z,12.33
2023-04-21T18:56:33.603Z,12.70
2023-04-21T18:59:03.454Z,11.30
2023-04-21T19:01:31.826Z,12.37
2023-04-21T19:04:00.120Z,13.73
2023-04-21T19:06:29.285Z,13.50
2023-04-21T19:08:57.972Z,15.07
2023-04-21T19:11:26.092Z,13.80
2023-04-21T19:13:54.348Z,13.90
2023-04-21T19:16:23.887Z,13.13
2023-04-21T19:18:52.260Z,16.87
2023-04-21T19:21:20.456Z,17.50
2023-04-21T19:23:48.565Z,15.00
2023-04-21T19:26:17.092Z,15.50
2023-04-21T19:28:45.190Z,14.80
2023-04-21T19:31:13.322Z,16.00
2023-04-21T19:33:42.729Z,15.33
2023-04-21T19:36:10.837Z,14.77
2023-04-21T19:38:38.922Z,15.17
2023-04-21T19:41:06.990Z,15.17
2023-04-21T19:43:35.080Z,13.77
2023-04-21T19:46:03.222Z,15.30
2023-04-21T19:48:31.380Z,14.10
2023-04-21T19:51:00.957Z,14.70
2023-04-21T19:53:29.011Z,14.50
2023-04-21T19:55:57.225Z,12.83
2023-04-21T19:58:39.523Z,12.33
2023-04-21T20:01:09.111Z,13.00
2023-04-21T20:03:37.525Z,12.50
2023-04-21T20:06:07.775Z,12.90
2023-04-21T20:08:36.653Z,11.67
2023-04-21T20:11:04.834Z,11.40
2023-04-21T20:13:32.897Z,12.63
2023-04-21T20:16:01.055Z,12.10
2023-04-21T20:18:29.167Z,11.67
2023-04-21T20:20:57.311Z,11.33
2023-04-21T20:23:26.925Z,12.33
2023-04-21T20:25:55.613Z,11.40
2023-04-21T20:28:23.751Z,12.30
2023-04-21T20:30:51.780Z,11.00
2023-04-21T20:33:19.876Z,10.80
2023-04-21T20:35:47.931Z,12.83
2023-04-21T20:38:16.553Z,11.30
2023-04-21T20:40:46.402Z,10.50
2023-04-21T20:43:15.138Z,12.20
2023-04-21T20:45:43.724Z,11.50
2023-04-21T20:48:11.821Z,11.37
2023-04-21T20:50:39.966Z,12.47
2023-04-21T20:53:08.776Z,13.17
2023-04-21T20:55:36.987Z,13.53
2023-04-21T20:58:06.497Z,11.90
2023-04-21T21:00:35.113Z,12.47
2023-04-21T21:03:04.646Z,12.10
2023-04-21T21:05:34.122Z,13.03
2023-04-21T21:08:02.357Z,12.43
2023-04-21T21:10:30.538Z,11.40
2023-04-21T21:12:59.689Z,12.63
2023-04-21T21:15:30.485Z,12.23
2023-04-21T21:17:58.818Z,11.63
2023-04-21T21:20:27.102Z,12.93
2023-04-21T21:22:55.234Z,13.50
2023-04-21T21:25:23.286Z,12.30
2023-04-21T21:27:51.365Z,12.73
2023-04-21T21:30:19.413Z,11.63
2023-04-21T21:32:49.677Z,13.63
2023-04-21T21:35:17.912Z,13.13
2023-04-21T21:37:46.193Z,13.47
2023-04-21T21:40:15.087Z,13.50
2023-04-21T21:42:43.390Z,12.40
2023-04-21T21:45:12.471Z,14.33
2023-04-21T21:47:42.955Z,14.10
2023-04-21T21:50:13.739Z,13.30
2023-04-21T21:52:41.956Z,13.90
2023-04-21T21:55:10.777Z,13.10
2023-04-21T21:57:38.875Z,12.10
2023-04-21T22:00:09.067Z,12.30
2023-04-21T22:02:37.510Z,12.10
2023-04-21T22:05:06.174Z,13.03
2023-04-21T22:07:35.875Z,13.10
2023-04-21T22:10:04.239Z,13.43
2023-04-21T22:12:33.058Z,12.43
2023-04-21T22:15:01.181Z,12.00
2023-04-21T22:17:29.628Z,13.00
2023-04-21T22:19:57.902Z,13.30
2023-04-21T22:22:25.982Z,11.60
2023-04-21T22:24:55.404Z,12.97
2023-04-21T22:27:23.479Z,12.63
2023-04-21T22:29:51.544Z,13.30
2023-04-21T22:32:19.672Z,12.87
2023-04-21T22:34:47.706Z,13.37
2023-04-21T22:37:15.779Z,13.27
2023-04-21T22:39:43.900Z,11.43
2023-04-21T22:42:13.357Z,12.87
2023-04-21T22:44:41.694Z,12.40
2023-04-21T22:47:10.762Z,12.80
2023-04-21T22:49:39.390Z,13.90
2023-04-21T22:52:07.757Z,14.43
2023-04-21T22:54:35.828Z,13.50
2023-04-21T22:57:03.988Z,13.33
2023-04-21T22:59:33.502Z,13.73
2023-04-21T23:02:01.811Z,14.80
2023-04-21T23:04:29.936Z,13.00
2023-04-21T23:06:57.992Z,12.40
2023-04-21T23:09:26.082Z,14.10
2023-04-21T23:11:54.200Z,12.10
2023-04-21T23:14:22.293Z,14.73
2023-04-21T23:16:51.724Z,13.90
2023-04-21T23:19:20.780Z,13.00
2023-04-21T23:21:48.861Z,13.43
2023-04-21T23:24:17.033Z,14.00
2023-04-21T23:26:45.058Z,13.43
2023-04-21T23:29:13.126Z,12.90
2023-04-21T23:31:41.327Z,13.50
2023-04-21T23:34:11.027Z,12.63
2023-04-21T23:36:39.086Z,13.77
2023-04-21T23:39:07.222Z,13.90
2023-04-21T23:41:35.322Z,13.83
2023-04-21T23:44:03.471Z,13.20
2023-04-21T23:46:31.775Z,11.60
2023-04-21T23:48:59.924Z,12.80
2023-04-21T23:51:29.507Z,11.87
2023-04-21T23:53:57.638Z,12.70
2023-04-21T23:56:25.789Z,12.20
2023-04-21T23:58:55.236Z,10.87
